Date,TemperatureHighF,TemperatureAvgF,TemperatureLowF,DewpointHighF,DewpointAvgF,DewpointLowF,HumidityHigh,HumidityAvg,HumidityLow,PressureMaxIn,PressureMinIn,WindSpeedMaxMPH,WindSpeedAvgMPH,GustSpeedMaxMPH,PrecipitationSumIn
2013-1-1,37,14,4,14,2,-6,77,59,29,29.85,29.69,8,4,11,0.00
2013-1-2,36,14,-2,12,-2,-14,67,51,24,29.85,29.73,8,3,10,0.00
2013-1-3,42,14,2,9,-5,-13,57,42,23,29.94,29.83,9,3,14,0.00
2013-1-4,41,15,1,10,-2,-11,69,49,24,29.90,29.76,6,2,8,0.00
2013-1-5,44,16,-1,14,0,-11,69,52,24,29.99,29.85,5,2,8,0.00
2013-1-6,52,24,4,15,3,-7,70,43,22,29.96,29.76,6,2,11,0.00
2013-1-7,58,30,17,20,6,-2,51,37,21,29.76,29.62,8,3,11,0.00
2013-1-8,52,24,7,16,5,-7,65,46,22,29.93,29.68,6,2,8,0.00
2013-1-9,59,27,8,22,9,-3,74,49,21,30.07,29.82,8,3,11,0.00
2013-1-10,41,28,18,29,13,2,95,55,33,29.82,29.44,12,4,21,0.00
2013-1-11,34,17,-3,26,5,-16,91,60,30,29.57,29.30,26,13,38,0.08
2013-1-12,24,5,-6,-1,-13,-22,58,44,23,29.60,29.51,16,5,21,0.00
2013-1-13,23,8,-4,6,-5,-20,66,53,42,29.63,29.58,6,3,8,0.00
2013-1-14,38,12,-3,19,-2,-16,73,55,30,29.69,29.57,12,4,17,0.00
2013-1-15,30,6,-9,2,-12,-24,57,44,25,29.92,29.69,8,3,12,0.00
2013-1-16,39,14,-2,9,-4,-15,64,45,23,30.03,29.90,6,3,10,0.00
2013-1-17,61,27,7,22,10,-4,70,51,22,30.09,29.96,7,3,8,0.01
2013-1-18,56,30,16,21,13,6,74,52,22,30.03,29.86,11,4,14,0.00
2013-1-19,51,26,12,22,10,-2,69,52,25,30.02,29.91,6,3,9,0.00
2013-1-20,51,26,9,21,9,-4,75,50,25,30.00,29.82,6,2,9,0.00
2013-1-21,53,28,13,23,11,1,73,52,24,29.97,29.86,7,3,9,0.00
2013-1-22,55,29,13,24,13,3,76,53,24,30.00,29.90,6,2,8,0.00
2013-1-23,58,31,13,21,11,-2,70,45,21,30.04,29.98,8,3,10,0.00
2013-1-24,50,36,25,31,20,8,81,53,27,29.99,29.91,13,3,20,0.00
2013-1-25,49,37,32,38,32,28,89,81,62,29.97,29.88,5,2,8,0.00
2013-1-26,38,36,34,38,34,32,99,93,85,29.88,29.61,10,3,14,0.90
2013-1-27,52,37,33,41,34,31,99,91,65,29.69,29.61,6,3,10,0.26
2013-1-28,36,31,18,34,28,13,97,88,69,29.61,29.47,14,4,22,0.34
2013-1-29,28,20,13,18,5,-7,88,56,22,29.65,29.39,22,7,33,0.00
2013-1-30,37,22,8,17,6,-7,71,51,30,29.83,29.65,13,6,23,0.00
2013-1-31,44,26,11,23,14,3,76,62,42,29.92,29.82,9,4,12,0.00
2013-2-1,50,30,15,27,17,8,75,59,34,29.95,29.83,8,3,11,0.00
2013-2-2,55,32,18,26,17,6,74,56,27,30.03,29.94,7,3,8,0.00
2013-2-3,44,32,23,28,20,12,85,63,36,29.97,29.73,10,3,14,0.00
2013-2-4,49,27,19,31,21,12,84,76,49,29.81,29.73,7,3,11,0.00
2013-2-5,56,33,16,31,21,6,82,61,35,29.80,29.71,7,3,11,0.00
2013-2-6,53,35,24,29,20,13,71,55,31,29.73,29.65,19,4,29,0.00
2013-2-7,53,35,21,25,17,6,75,50,25,29.84,29.71,8,3,11,0.00
2013-2-8,47,37,27,27,20,13,65,50,38,29.78,29.49,18,6,30,0.01
2013-2-9,30,25,19,25,17,12,86,72,55,29.49,29.35,21,6,29,0.01
2013-2-10,33,24,20,23,18,13,85,78,54,29.60,29.46,14,6,19,0.04
2013-2-11,45,22,8,22,12,-4,85,65,28,29.67,29.58,8,3,13,0.05
2013-2-12,41,19,3,11,0,-12,64,44,23,29.81,29.66,11,4,15,0.00
2013-2-13,46,22,5,21,6,-5,66,53,28,29.81,29.75,8,4,11,0.00
2013-2-14,50,28,9,22,9,-3,69,48,25,29.85,29.75,15,4,22,0.00
2013-2-15,42,29,11,12,2,-7,52,31,22,29.98,29.84,22,8,33,0.00
2013-2-16,48,30,15,22,8,-3,56,40,23,30.02,29.83,8,4,11,0.00
2013-2-17,57,35,19,20,9,3,49,35,21,29.83,29.50,10,4,33,0.02
2013-2-18,42,30,18,16,5,-7,62,36,21,29.77,29.51,21,6,33,0.00
2013-2-19,50,31,16,15,5,-9,45,33,22,29.76,29.45,9,4,12,0.00
2013-2-20,41,28,16,31,19,10,90,70,40,29.46,29.32,10,3,16,0.09
2013-2-21,54,24,9,28,15,0,85,68,32,29.55,29.34,17,5,27,0.00
2013-2-22,41,23,11,27,9,-5,72,54,31,29.66,29.55,18,6,32,0.02
2013-2-23,36,22,7,22,5,-9,85,49,27,29.95,29.43,14,4,23,0.00
2013-2-24,40,22,8,17,4,-4,72,47,21,29.58,29.43,17,5,23,0.00
2013-2-25,40,25,8,16,4,-9,56,39,27,29.70,29.58,9,4,12,0.00
2013-2-26,34,23,10,14,1,-10,62,40,25,29.72,29.52,20,8,32,0.02
2013-2-27,37,23,8,5,-3,-14,47,32,22,29.87,29.72,11,5,17,0.00
2013-2-28,48,29,11,14,2,-8,45,31,22,29.94,29.85,18,6,24,0.00
2013-3-1,51,35,20,25,15,6,66,45,28,30.00,29.91,13,4,18,0.00
2013-3-2,58,40,22,30,22,11,67,50,27,30.04,29.89,8,4,13,0.00
2013-3-3,50,39,27,31,24,16,71,56,37,29.90,29.60,12,4,17,0.00
2013-3-4,49,40,31,33,26,7,83,58,31,29.80,29.57,22,9,31,0.06
2013-3-5,54,37,23,23,12,4,55,38,21,29.93,29.79,9,4,13,0.00
2013-3-6,64,43,29,25,19,9,60,40,20,29.86,29.70,9,4,12,0.00
2013-3-7,62,44,27,28,21,15,74,43,20,29.77,29.67,9,4,17,0.00
2013-3-8,42,35,30,36,28,20,99,79,51,29.70,29.49,17,4,27,0.08
2013-3-9,34,27,20,31,22,16,99,83,66,29.66,29.46,12,2,21,0.04
2013-3-10,48,31,14,28,17,7,82,58,29,29.83,29.66,10,4,18,0.07
2013-3-11,56,38,22,31,20,13,74,51,24,29.83,29.72,17,5,25,0.00
2013-3-12,58,42,27,31,25,19,85,54,29,29.94,29.78,15,5,21,0.00
2013-3-13,64,45,29,30,25,20,77,49,21,30.02,29.93,12,4,17,0.00
2013-3-14,68,51,33,28,22,18,60,34,17,30.03,29.92,13,5,18,0.00
2013-3-15,70,52,33,31,22,16,63,34,16,29.95,29.74,15,6,27,0.00
2013-3-16,62,47,34,33,26,20,73,46,24,29.75,29.60,20,6,30,0.00
2013-3-17,58,43,31,33,21,7,77,47,21,29.64,29.49,29,8,42,0.06
2013-3-18,52,42,29,15,11,5,48,29,21,29.75,29.61,22,8,37,0.02
2013-3-19,57,42,30,24,14,5,61,34,21,29.87,29.72,15,6,24,0.00
2013-3-20,54,41,27,33,20,7,76,46,21,29.88,29.64,15,5,27,0.00
2013-3-21,56,44,32,36,21,1,83,46,21,29.65,29.47,26,9,42,0.00
2013-3-22,55,39,22,16,10,-1,50,31,20,29.57,29.40,31,9,49,0.90
2013-3-23,38,27,18,5,-2,-9,48,28,21,29.74,29.46,22,11,36,0.00
2013-3-24,40,27,10,6,0,-6,55,32,21,29.74,29.63,22,7,40,0.02
2013-3-25,49,32,13,14,4,-4,48,30,21,29.82,29.73,22,6,35,0.00
2013-3-26,56,41,24,20,13,6,57,35,21,29.81,29.70,13,4,20,0.00
2013-3-27,63,49,31,27,18,9,62,32,19,29.79,29.70,16,6,36,0.00
2013-3-28,64,49,33,23,18,11,53,30,19,29.85,29.78,16,6,29,0.00
2013-3-29,66,50,35,29,22,20,56,36,20,29.89,29.83,18,6,28,0.00
2013-3-30,66,51,33,28,23,20,61,37,18,30.58,29.77,17,7,30,0.00
2013-3-31,67,52,35,28,24,20,63,36,17,29.84,29.73,16,6,27,0.00
2013-4-1,65,52,38,37,24,10,75,37,18,29.78,29.64,19,7,34,0.00
2013-4-2,56,43,29,32,19,8,73,42,21,29.72,29.64,16,6,29,0.00
2013-4-3,65,45,27,30,21,10,83,44,19,29.85,29.71,20,8,36,0.00
2013-4-4,66,51,34,22,18,10,46,28,18,29.92,29.81,16,6,24,0.00
2013-4-5,67,52,38,25,21,16,50,31,18,29.84,29.65,18,7,31,0.00
2013-4-6,65,53,38,29,23,16,64,34,18,29.75,29.65,22,7,34,0.00
2013-4-7,64,51,34,31,21,10,62,33,19,29.67,29.55,18,6,34,0.00
2013-4-8,62,45,32,34,24,16,99,49,20,29.55,29.19,32,11,51,1.51
2013-4-9,40,34,28,37,33,28,99,97,82,29.54,29.25,17,5,25,0.19
2013-4-10,44,31,24,29,25,18,99,78,47,29.66,29.54,8,2,12,0.00
2013-4-11,56,38,22,38,25,15,77,59,39,29.66,29.57,19,5,29,0.00
2013-4-12,62,46,29,32,23,18,75,43,20,29.69,29.60,16,5,27,0.00
2013-4-13,62,50,30,28,21,17,68,35,20,29.68,29.41,26,9,39,0.00
2013-4-14,59,51,42,34,25,18,67,38,23,29.51,29.40,25,10,41,0.00
2013-4-15,64,52,41,33,25,17,64,38,19,29.50,29.40,28,10,43,0.04
2013-4-16,66,52,39,31,23,15,67,36,17,29.55,29.42,32,13,48,0.71
2013-4-17,47,39,26,31,17,4,82,42,22,29.62,29.49,28,12,41,0.00
2013-4-18,40,32,23,6,0,-7,36,25,21,29.86,29.62,23,14,36,0.00
2013-4-19,55,38,16,16,6,-10,43,26,21,29.89,29.73,23,8,34,0.00
2013-4-20,57,46,32,29,22,10,62,40,25,29.77,29.66,20,8,30,0.00
2013-4-21,62,48,28,25,20,13,68,36,19,29.85,29.75,23,8,39,0.06
2013-4-22,68,52,34,25,21,15,57,32,17,29.76,29.56,30,9,44,0.44
2013-4-23,53,45,31,24,14,-2,54,30,21,29.80,29.56,30,10,43,0.09
2013-4-24,61,44,22,20,10,-5,35,24,19,29.83,29.76,19,6,30,0.00
2013-4-25,67,52,37,36,20,9,71,31,17,29.82,29.67,18,7,36,0.01
2013-4-26,63,50,35,34,28,18,77,45,21,29.93,29.78,23,6,35,0.00
2013-4-27,71,54,35,24,20,14,52,29,15,29.95,29.82,17,6,33,0.00
2013-4-28,73,58,36,23,19,11,45,23,14,29.86,29.70,19,7,30,0.00
2013-4-29,76,61,44,28,22,15,44,23,14,29.74,29.60,21,8,32,0.00
2013-4-30,76,61,42,31,22,18,48,25,13,29.65,29.55,26,10,41,0.14
2013-5-1,62,53,37,29,17,2,42,24,19,29.94,29.61,25,10,35,0.00
2013-5-2,57,45,27,20,10,-4,30,24,20,30.08,29.94,18,8,30,0.00
2013-5-3,65,47,26,21,13,2,45,26,17,30.00,29.73,12,5,21,0.00
2013-5-4,72,54,32,22,16,8,41,24,13,29.74,29.65,14,5,21,0.00
2013-5-5,67,57,47,30,21,14,42,25,18,29.83,29.72,17,6,34,0.00
2013-5-6,54,48,42,45,39,30,97,74,39,29.80,29.73,19,6,30,0.17
2013-5-7,65,51,35,44,34,22,99,59,21,29.82,29.67,15,4,30,0.05
2013-5-8,56,46,36,41,34,24,96,66,31,29.80,29.71,18,6,31,0.14
2013-5-9,60,45,35,41,35,29,87,70,37,29.87,29.76,18,5,24,0.01
2013-5-10,67,49,34,43,35,26,86,61,24,30.00,29.85,19,5,30,0.05
2013-5-11,69,52,36,42,33,23,88,53,18,30.03,29.97,17,5,28,0.05
2013-5-12,75,57,38,41,34,24,80,47,16,30.04,29.89,12,5,22,0.00
2013-5-13,83,64,46,41,34,24,58,36,13,30.00,29.88,13,5,20,0.00
2013-5-14,82,64,49,42,36,27,60,38,16,30.57,29.77,19,7,28,0.00
2013-5-15,80,65,48,43,34,16,73,36,14,29.82,29.68,18,6,34,0.00
2013-5-16,78,61,42,36,25,14,53,27,15,29.81,29.68,17,5,39,0.00
2013-5-17,76,61,41,31,24,18,53,27,13,29.80,29.69,21,6,31,0.00
2013-5-18,69,57,45,37,27,19,58,34,17,29.79,29.68,17,7,33,0.00
2013-5-19,63,53,43,33,28,21,61,40,20,29.72,29.65,26,8,36,0.00
2013-5-20,64,51,39,37,32,23,72,48,22,29.77,29.68,23,6,36,0.00
2013-5-21,71,55,34,38,31,23,86,46,19,29.81,29.68,18,6,28,0.00
2013-5-22,78,61,41,37,27,19,59,31,14,29.73,29.64,24,6,38,0.00
2013-5-23,80,64,41,33,26,19,58,26,14,29.79,29.67,22,8,39,0.00
2013-5-24,78,63,42,32,23,15,49,23,14,29.87,29.76,18,6,28,0.00
2013-5-25,82,63,42,30,24,19,48,25,13,29.87,29.75,16,6,27,0.00
2013-5-26,76,61,42,31,23,16,50,26,13,29.86,29.74,14,6,25,0.00
2013-5-27,74,59,39,29,21,16,52,25,13,29.79,29.67,14,5,25,0.00
2013-5-28,74,59,41,35,23,19,48,27,14,29.70,29.52,14,5,25,0.00
2013-5-29,67,57,45,44,31,19,82,41,18,29.65,29.53,21,10,33,0.00
2013-5-30,72,59,46,34,26,18,55,31,14,29.69,29.61,22,7,36,0.00
2013-5-31,73,60,41,33,22,14,57,27,13,29.83,29.69,21,7,34,0.00
2013-6-1,78,62,43,27,19,8,34,20,13,29.90,29.79,13,7,21,0.00
2013-6-2,86,65,42,37,27,18,45,26,13,29.88,29.70,10,5,19,0.00
2013-6-3,80,66,46,40,33,23,60,32,15,29.79,29.73,22,6,42,0.11
2013-6-4,85,68,46,42,30,22,60,28,13,29.82,29.73,15,6,27,0.00
2013-6-5,84,69,50,41,28,20,46,24,13,29.82,29.70,24,6,42,0.00
2013-6-6,86,68,50,40,29,22,42,25,13,29.83,29.73,15,6,26,0.00
2013-6-7,83,67,48,41,33,22,56,31,14,29.85,29.69,18,6,34,0.00
2013-6-8,89,71,49,42,33,24,55,28,13,29.78,29.67,13,6,31,0.00
2013-6-9,92,76,61,40,32,22,33,21,11,29.85,29.75,18,8,26,0.00
2013-6-10,92,76,52,43,31,21,44,21,11,29.89,29.76,15,6,26,0.00
2013-6-11,87,71,50,38,29,22,47,23,12,29.90,29.82,21,6,41,0.01
2013-6-12,88,72,51,38,29,22,44,21,13,29.95,29.88,14,5,25,0.00
2013-6-13,89,74,54,40,32,22,40,23,13,29.92,29.80,19,5,41,0.00
2013-6-14,87,73,56,45,35,22,59,29,13,29.88,29.74,17,6,27,0.00
2013-6-15,85,66,48,44,32,20,56,31,13,29.93,29.79,26,6,40,0.00
2013-6-16,84,68,51,45,38,27,63,37,14,29.94,29.83,16,6,28,0.00
2013-6-17,84,71,54,41,33,20,52,28,13,29.91,29.79,18,6,27,0.00
2013-6-18,85,70,50,48,32,19,53,27,12,29.89,29.73,18,6,26,0.00
2013-6-19,86,68,47,33,24,16,40,20,12,29.80,29.67,18,6,38,0.01
2013-6-20,85,67,47,33,24,15,35,20,12,29.83,29.72,16,6,28,0.00
2013-6-21,84,68,46,32,25,18,46,22,13,29.87,29.75,15,5,24,0.00
2013-6-22,83,68,48,32,25,20,45,21,13,29.83,29.72,17,6,32,0.00
2013-6-23,84,68,45,33,25,18,50,21,13,29.81,29.70,13,5,24,0.00
2013-6-24,82,67,50,34,24,17,38,21,13,29.82,29.73,16,6,29,0.00
2013-6-25,84,69,49,37,28,16,38,22,15,29.88,29.79,17,6,35,0.00
2013-6-26,91,75,52,41,35,29,51,25,13,29.95,29.86,17,6,26,0.00
2013-6-27,99,78,58,45,37,31,44,24,11,30.00,29.92,16,4,24,0.00
2013-6-28,97,77,57,46,39,30,48,28,12,30.05,29.92,21,7,34,0.00
2013-6-29,89,70,58,56,47,37,75,47,22,30.02,29.88,23,5,30,0.09
2013-6-30,87,71,54,54,48,40,81,49,24,29.97,29.81,21,5,30,0.00
2013-7-1,88,71,52,50,47,44,81,47,24,30.00,29.83,13,6,25,0.00
2013-7-2,88,70,52,52,48,44,82,50,22,30.01,29.78,14,5,22,0.00
2013-7-3,89,70,52,53,48,29,84,50,12,29.93,29.71,18,6,27,0.00
2013-7-4,86,72,56,50,45,37,68,41,21,29.84,29.73,14,4,40,0.00
2013-7-5,90,72,60,57,50,44,72,49,22,29.84,29.71,18,6,29,0.00
2013-7-6,88,70,58,56,53,45,86,57,24,29.91,29.73,11,4,27,0.02
2013-7-7,89,74,59,55,50,42,86,48,23,29.90,29.77,14,5,26,0.00
2013-7-8,92,77,59,54,46,32,70,38,13,29.98,29.85,17,7,29,0.00
2013-7-9,97,77,59,53,46,34,69,37,12,30.01,29.89,22,5,36,0.00
2013-7-10,97,74,60,57,49,38,76,44,14,29.99,29.84,18,5,26,0.00
2013-7-11,89,70,57,58,53,48,85,58,28,29.98,29.78,27,5,49,0.81
2013-7-12,86,69,60,62,56,46,89,66,31,29.92,29.83,18,5,26,0.25
2013-7-13,88,72,57,58,54,44,88,57,27,29.96,29.84,11,4,22,0.00
2013-7-14,89,71,60,60,54,47,90,58,26,29.95,29.82,18,4,25,0.01
2013-7-15,81,66,59,62,58,49,99,79,34,29.93,29.85,15,4,23,0.27
2013-7-16,78,64,56,60,56,52,99,77,46,29.99,29.88,7,3,12,0.05
2013-7-17,86,68,56,58,54,48,95,64,32,30.05,29.93,10,4,17,0.00
2013-7-18,83,70,55,57,52,46,86,55,33,30.03,29.88,13,5,22,0.00
2013-7-19,86,71,56,56,53,46,84,54,27,29.95,29.82,13,5,23,0.04
2013-7-20,85,71,58,56,53,47,81,56,31,29.93,29.77,15,4,27,0.00
2013-7-21,86,70,56,54,49,39,77,51,24,29.89,29.80,18,5,27,0.00
2013-7-22,93,72,54,54,46,36,75,44,15,29.91,29.82,18,5,34,0.00
2013-7-23,92,72,58,49,46,38,64,41,16,29.93,29.84,13,4,21,0.00
2013-7-24,91,72,58,58,48,38,95,48,17,29.99,29.83,20,5,32,0.12
2013-7-25,87,70,55,57,53,40,99,59,27,29.98,29.84,14,5,23,0.00
2013-7-26,87,72,58,56,52,46,86,51,28,30.03,29.91,18,5,21,0.00
2013-7-27,84,69,53,59,52,45,93,60,27,30.03,29.80,14,5,21,0.00
2013-7-28,78,65,57,63,56,48,99,77,43,29.88,29.78,22,4,31,0.18
2013-7-29,83,68,53,57,50,38,98,57,21,29.97,29.84,19,5,29,0.00
2013-7-30,88,72,54,52,44,32,76,42,15,30.06,29.97,15,6,26,0.00
2013-7-31,92,75,56,46,39,32,57,31,13,30.07,29.92,9,5,18,0.00
2013-8-1,79,66,58,63,51,39,96,61,33,30.03,29.91,17,4,27,0.08
2013-8-2,87,68,53,58,54,48,99,66,32,30.00,29.84,15,5,25,0.04
2013-8-3,86,68,56,60,54,46,99,66,29,30.00,29.89,16,5,24,0.07
2013-8-4,89,70,55,59,50,43,94,53,23,30.01,29.88,18,6,27,0.02
2013-8-5,87,70,54,58,52,42,99,60,25,30.01,29.83,15,6,26,0.00
2013-8-6,81,66,57,58,52,46,99,63,32,29.93,29.84,14,6,24,0.09
2013-8-7,76,60,54,58,55,50,99,86,44,29.91,29.85,17,4,23,0.30
2013-8-8,68,58,52,58,52,45,99,83,54,29.92,29.84,10,4,17,0.04
2013-8-9,83,64,48,51,46,32,89,56,17,29.97,29.89,15,5,31,0.00
2013-8-10,80,61,50,52,48,44,93,67,33,30.08,29.94,24,6,38,0.25
2013-8-11,82,64,49,51,46,40,92,56,26,30.04,29.90,11,4,18,0.00
2013-8-12,83,67,53,50,46,38,77,50,23,29.98,29.88,11,4,18,0.00
2013-8-13,86,69,52,52,41,26,73,42,13,30.01,29.89,13,5,24,0.00
2013-8-14,85,70,52,44,37,28,63,33,15,29.99,29.88,14,5,25,0.00
2013-8-15,89,72,52,44,35,27,52,29,13,29.99,29.88,10,5,21,0.00
2013-8-16,90,74,58,40,34,29,42,25,12,30.00,29.89,14,5,21,0.00
2013-8-17,90,71,54,47,40,31,58,35,17,30.00,29.89,18,5,42,0.00
2013-8-18,88,70,54,50,47,40,72,46,23,30.00,29.88,12,5,24,0.00
2013-8-19,89,72,58,51,47,41,66,44,22,29.98,29.87,12,4,21,0.00
2013-8-20,91,71,56,51,48,44,70,45,22,29.94,29.84,16,6,25,0.00
2013-8-21,90,71,56,58,47,40,94,47,21,30.02,29.86,20,7,30,0.07
2013-8-22,86,72,58,56,49,41,85,49,24,29.99,29.85,12,5,21,0.00
2013-8-23,86,72,54,54,44,24,85,43,12,29.94,29.79,18,6,30,0.01
2013-8-24,78,65,57,57,52,46,96,66,34,29.98,29.88,17,5,27,0.07
2013-8-25,76,61,56,62,58,56,99,92,55,30.04,29.96,11,4,17,0.72
2013-8-26,85,69,57,60,57,49,99,69,33,30.04,29.92,8,4,28,0.02
2013-8-27,90,71,58,57,53,39,86,56,18,29.98,29.85,9,4,15,0.00
2013-8-28,88,72,57,56,51,35,79,51,16,29.96,29.86,11,4,20,0.00
2013-8-29,91,71,58,56,52,46,77,54,23,30.02,29.92,12,4,17,0.00
2013-8-30,92,73,60,56,50,44,72,48,21,30.01,29.88,16,4,34,0.07
2013-8-31,89,72,56,57,53,48,88,55,26,29.97,29.82,18,5,23,0.04
2013-9-1,90,73,57,56,50,41,75,47,23,30.00,29.83,12,5,21,0.00
2013-9-2,90,72,59,58,52,42,93,56,22,30.00,29.86,10,4,17,0.00
2013-9-3,88,70,59,60,52,47,81,57,27,30.00,29.91,14,4,22,0.12
2013-9-4,91,74,57,56,51,44,87,50,22,30.02,29.91,11,4,20,0.00
2013-9-5,90,74,57,53,45,33,77,41,17,30.04,29.92,10,5,17,0.00
2013-9-6,90,73,55,45,39,34,54,32,14,30.03,29.86,8,4,17,0.00
2013-9-7,90,73,57,48,43,36,61,37,17,29.96,29.83,10,4,18,0.00
2013-9-8,86,70,56,54,49,40,83,51,23,29.91,29.76,13,4,21,0.00
2013-9-9,82,64,55,56,52,45,95,67,32,29.84,29.71,15,4,28,0.09
2013-9-10,62,58,56,59,56,54,99,94,81,29.90,29.79,13,5,18,0.56
2013-9-11,79,62,55,62,55,49,99,80,42,29.93,29.86,9,4,12,0.45
2013-9-12,79,61,52,58,53,47,99,78,41,29.95,29.83,13,4,20,0.50
2013-9-13,72,60,51,59,55,48,99,84,54,29.88,29.77,12,4,17,0.21
2013-9-14,70,59,51,56,53,49,99,82,52,29.87,29.75,16,6,26,0.09
2013-9-15,77,60,49,54,51,46,99,74,38,29.93,29.83,13,4,19,0.00
2013-9-16,80,63,52,55,52,47,95,71,33,29.98,29.85,9,4,15,0.00
2013-9-17,79,65,54,56,53,48,91,68,36,29.93,29.76,8,4,15,0.01
2013-9-18,74,60,51,59,54,49,99,84,48,29.85,29.70,15,5,25,0.00
2013-9-19,76,61,49,55,47,33,96,64,21,29.84,29.76,11,4,19,0.00
2013-9-20,78,62,46,47,41,33,79,51,22,29.91,29.78,10,4,18,0.00
2013-9-21,77,62,48,53,46,41,88,60,33,29.89,29.73,9,4,15,0.01
2013-9-22,63,52,40,56,49,39,99,90,68,29.75,29.49,20,5,39,0.97
2013-9-23,68,52,37,42,36,28,99,62,26,29.90,29.61,14,5,22,0.00
2013-9-24,77,56,40,43,36,24,79,52,18,29.95,29.78,6,4,11,0.00
2013-9-25,74,59,42,42,35,27,76,45,20,29.81,29.54,22,6,27,0.00
2013-9-26,71,58,43,36,30,22,67,38,17,29.69,29.57,20,8,30,0.00
2013-9-27,59,47,36,48,36,22,98,67,30,29.84,29.59,18,6,30,0.19
2013-9-28,66,46,28,33,26,20,85,50,19,29.97,29.84,7,3,12,0.00
2013-9-29,69,52,34,37,27,16,77,44,17,29.98,29.85,21,6,26,0.00
2013-9-30,73,56,39,37,30,23,68,40,16,29.88,29.76,12,5,21,0.00
2013-10-1,74,58,41,43,32,21,72,43,14,29.85,29.78,9,4,15,0.00
2013-10-2,72,56,39,37,28,22,63,37,16,30.51,29.74,10,5,18,0.00
2013-10-3,68,54,37,38,31,26,74,43,24,29.75,29.58,14,5,27,0.00
2013-10-4,54,44,31,34,21,8,78,43,22,29.85,29.59,16,7,29,0.00
2013-10-5,55,41,25,26,18,5,69,41,23,29.99,29.85,12,5,19,0.00
2013-10-6,67,46,27,30,23,16,67,44,19,30.01,29.94,9,4,14,0.00
2013-10-7,75,54,34,32,26,20,64,39,14,29.99,29.85,8,3,12,0.00
2013-10-8,71,55,38,34,28,24,62,39,18,29.85,29.67,14,5,24,0.00
2013-10-9,68,53,38,39,30,20,75,45,16,29.74,29.64,20,6,39,0.02
2013-10-10,51,41,32,43,36,32,99,84,56,29.71,29.54,20,4,33,0.48
2013-10-11,55,38,32,41,35,32,99,89,56,29.83,29.70,6,2,8,0.28
2013-10-12,61,44,30,38,32,26,99,66,27,29.88,29.81,7,4,12,0.01
2013-10-13,65,52,42,44,38,32,74,59,35,29.87,29.69,14,5,27,0.00
2013-10-14,55,45,34,38,30,24,85,56,32,29.84,29.74,19,6,27,0.00
2013-10-15,59,43,27,34,25,19,83,51,26,29.83,29.71,16,5,30,0.00
2013-10-16,53,41,32,38,28,19,97,66,29,29.85,29.76,12,5,22,0.00
2013-10-17,56,41,26,30,21,11,79,48,21,29.86,29.71,14,5,21,0.00
2013-10-18,61,43,26,28,16,3,68,37,21,29.88,29.72,14,5,21,0.00
2013-10-19,60,41,25,26,18,5,64,41,21,29.91,29.78,12,4,21,0.00
2013-10-20,64,46,27,30,21,15,70,41,19,29.81,29.65,17,5,30,0.00
2013-10-21,63,47,32,30,22,17,65,40,21,29.91,29.74,13,5,21,0.00
2013-10-22,68,47,28,27,21,15,65,39,18,29.96,29.89,6,4,12,0.00
2013-10-23,70,51,32,31,24,16,70,40,15,29.94,29.84,8,4,13,0.00
2013-10-24,74,54,36,36,25,21,60,35,15,29.95,29.85,12,4,22,0.00
2013-10-25,66,49,40,43,40,35,99,74,36,29.96,29.87,16,4,24,0.01
2013-10-26,64,49,34,42,37,26,99,68,25,30.00,29.93,12,4,18,0.01
2013-10-27,66,48,34,39,33,24,85,60,24,29.97,29.67,8,4,15,0.00
2013-10-28,61,49,37,36,27,16,80,46,21,29.71,29.62,18,7,40,0.00
2013-10-29,51,42,32,38,30,21,99,64,37,29.74,29.61,21,6,34,0.09
2013-10-30,47,32,26,37,30,22,99,90,48,29.71,29.63,11,4,20,0.13
2013-10-31,53,34,21,32,25,18,89,71,36,29.80,29.68,12,3,18,0.01
2013-11-1,59,38,23,33,26,20,91,66,29,29.96,29.80,9,3,16,0.00
2013-11-2,65,43,26,34,24,18,78,51,19,29.98,29.77,8,4,13,0.00
2013-11-3,59,43,32,35,24,16,76,49,25,29.78,29.56,14,4,22,0.00
2013-11-4,54,41,26,36,24,15,95,55,24,29.69,29.60,12,4,18,0.01
2013-11-5,45,35,23,35,18,2,99,55,23,29.90,29.59,20,7,27,0.00
2013-11-6,48,31,17,16,10,-1,66,42,23,30.08,29.89,11,4,21,0.00
2013-11-7,64,40,23,27,18,13,67,45,20,30.09,29.93,8,3,11,0.00
2013-11-8,60,43,27,28,20,11,66,42,22,29.94,29.75,16,6,24,0.00
2013-11-9,63,44,30,26,20,16,64,42,20,29.96,29.83,14,5,20,0.00
2013-11-10,64,45,30,24,20,16,61,39,19,30.01,29.88,10,4,18,0.00
2013-11-11,66,46,30,24,20,16,60,39,18,30.07,29.92,10,5,16,0.00
2013-11-12,66,47,29,24,20,14,62,36,18,30.17,30.02,9,4,17,0.00
2013-11-13,61,43,30,29,25,19,69,52,26,30.14,29.84,8,4,12,0.00
2013-11-14,55,36,29,26,23,12,75,61,21,30.08,29.80,14,5,20,0.27
2013-11-15,53,38,27,38,28,19,99,70,33,29.94,29.66,11,4,21,0.17
2013-11-16,44,38,31,39,34,30,99,86,64,29.78,29.68,21,6,34,0.08
2013-11-17,54,40,30,34,30,25,88,68,40,30.13,29.78,19,7,29,0.00
2013-11-18,59,41,28,33,26,21,84,60,29,30.19,30.03,8,4,11,0.00
2013-11-19,54,41,28,33,28,21,85,62,33,30.10,29.91,7,3,14,0.00
2013-11-20,54,39,29,38,32,25,98,78,44,29.93,29.85,11,4,17,0.11
2013-11-21,49,39,36,45,38,35,99,95,73,30.06,29.91,13,3,18,0.22
2013-11-22,38,36,33,38,35,33,99,97,94,30.16,30.03,10,4,14,0.72
2013-11-23,42,36,32,40,35,31,99,95,80,30.17,30.08,10,3,17,0.28
2013-11-24,32,27,22,31,25,20,99,93,82,30.11,29.95,0,0,0,0.00
2013-11-25,37,27,23,29,24,20,95,87,67,30.19,29.93,0,0,0,0.06
2013-11-26,34,28,23,26,23,19,88,83,70,30.26,30.19,0,0,3,0.00
2013-11-27,52,32,20,31,24,15,91,74,43,30.24,30.09,6,2,8,0.21
2013-11-28,55,36,25,33,24,19,83,64,33,30.17,30.04,7,3,9,0.01
2013-11-29,53,36,26,30,24,18,80,62,35,30.24,30.11,7,4,12,0.00
2013-11-30,53,35,25,34,26,19,94,71,42,30.23,30.11,12,4,17,0.00
2013-12-1,29,27,24,28,26,23,99,95,92,30.23,30.14,6,2,10,0.00
2013-12-2,29,27,26,28,26,24,98,94,91,30.15,29.85,6,2,8,0.00
2013-12-3,50,35,21,33,26,20,94,71,42,29.86,29.59,12,3,21,0.00
2013-12-4,41,28,10,31,18,0,92,66,48,29.82,29.55,26,8,39,0.09
2013-12-5,30,17,7,14,4,-4,70,57,34,29.83,29.75,12,4,17,0.00
2013-12-6,28,17,10,9,3,-3,74,53,32,29.99,29.82,15,6,22,0.00
2013-12-7,28,21,13,20,10,-3,86,64,41,29.97,29.67,19,4,28,0.00
2013-12-8,24,16,-1,20,0,-17,87,51,26,29.89,29.64,20,10,36,0.00
2013-12-9,26,7,-6,-1,-13,-24,56,39,24,30.23,29.89,9,4,13,0.00
2013-12-10,22,2,-5,0,-12,-16,60,51,30,30.25,30.18,6,3,8,0.00
2013-12-11,55,36,19,30,16,4,76,46,21,29.98,29.62,14,5,20,2.23
2013-12-12,55,31,15,22,11,0,59,44,22,29.99,29.69,9,3,12,0.00
2013-12-13,55,27,14,23,14,6,75,58,21,29.96,29.54,13,4,17,2.23
2013-12-14,40,24,12,21,12,6,77,63,42,30.20,29.96,11,4,15,0.00
2013-12-15,46,25,12,22,14,5,76,62,35,30.21,30.11,6,3,10,0.00
2013-12-16,49,28,16,26,17,8,76,63,38,30.23,30.11,6,3,9,0.00
2013-12-17,51,32,17,26,18,6,74,56,26,30.26,30.13,7,3,9,0.00
2013-12-18,53,35,20,28,20,11,75,55,28,30.14,29.82,8,3,11,0.00
2013-12-19,51,38,28,28,23,18,77,58,33,29.82,29.63,8,3,22,0.00
2013-12-20,43,32,24,33,26,19,90,80,61,29.71,29.59,7,3,12,0.00
2013-12-21,38,27,20,21,16,5,81,64,38,29.71,29.51,14,4,24,0.00
2013-12-22,39,26,14,21,9,3,68,50,31,30.07,29.71,12,4,18,0.00
2013-12-23,41,25,12,16,10,3,68,54,31,30.24,30.07,6,3,10,0.00
2013-12-24,45,30,16,25,13,4,70,50,27,30.20,29.97,18,4,27,0.00
2013-12-25,49,28,14,18,8,-1,64,44,21,30.21,30.09,8,3,12,0.00
2013-12-26,49,29,15,19,10,2,66,47,24,30.19,30.05,5,3,9,0.00
2013-12-27,53,33,17,23,15,7,69,51,23,30.20,30.05,7,3,10,0.00
2013-12-28,46,31,20,24,18,12,74,58,34,30.07,29.83,6,3,10,0.00
2013-12-29,48,29,19,25,17,11,79,62,32,30.03,29.83,11,4,17,0.00
2013-12-30,46,27,15,22,13,6,72,57,29,30.15,30.02,6,3,9,0.00
2013-12-31,48,30,17,21,15,7,71,55,29,30.14,29.96,10,3,16,0.00
2014-1-1,52,34,20,24,13,-4,75,46,21,30.11,29.95,20,6,30,0.00
2014-1-2,50,31,16,16,10,1,60,42,22,30.17,30.05,6,3,11,0.00